Time,TemperatureF,DewpointF,PressureIn,WindDirection,WindDirectionDegrees,WindSpeedMPH,WindSpeedGustMPH,Humidity,HourlyPrecipIn,Conditions,Clouds,dailyrainin,SolarRadiationWatts/m^2,SoftwareType,DateUTC
2013-05-29 00:02:00,58.0,41.0,-100.00,SSE,160,0.0,2.0,53,0.00,,,0.00,8.000000,,2013-05-29 08:02:00,
2013-05-29 00:11:00,58.0,41.0,-100.00,SSE,160,0.0,2.0,53,0.00,,,0.00,8.000000,,2013-05-29 08:11:00,
2013-05-29 00:21:00,58.0,41.0,-100.00,SSE,160,0.0,2.0,53,0.00,,,0.00,8.000000,,2013-05-29 08:21:00,
2013-05-29 00:52:00,53.0,40.0,-100.00,East,90,0.0,1.0,61,0.00,,,0.00,1.000000,,2013-05-29 08:52:00,
2013-05-29 01:01:00,53.0,40.0,-100.00,East,90,0.0,1.0,61,0.00,,,0.00,1.000000,,2013-05-29 09:01:00,
2013-05-29 01:11:00,53.0,40.0,-100.00,East,90,0.0,1.0,61,0.00,,,0.00,1.000000,,2013-05-29 09:11:00,
2013-05-29 01:21:00,53.0,40.0,-100.00,East,90,0.0,1.0,61,0.00,,,0.00,1.000000,,2013-05-29 09:21:00,
2013-05-29 01:52:00,50.0,39.0,-100.00,NE,38,0.0,2.0,67,0.00,,,0.00,0.000000,,2013-05-29 09:52:00,
2013-05-29 02:02:00,50.0,39.0,-100.00,NE,38,0.0,2.0,67,0.00,,,0.00,0.000000,,2013-05-29 10:02:00,
2013-05-29 02:12:00,50.0,39.0,-100.00,NE,38,0.0,2.0,67,0.00,,,0.00,0.000000,,2013-05-29 10:12:00,
2013-05-29 02:22:00,50.0,39.0,-100.00,NE,38,0.0,2.0,67,0.00,,,0.00,0.000000,,2013-05-29 10:22:00,
2013-05-29 02:53:00,47.0,39.0,-100.00,SW,220,0.0,3.0,75,0.00,,,0.00,0.000000,,2013-05-29 10:53:00,
2013-05-29 03:02:00,47.0,39.0,-100.00,SW,220,0.0,3.0,75,0.00,,,0.00,0.000000,,2013-05-29 11:02:00,
2013-05-29 03:11:00,47.0,39.0,-100.00,SW,220,0.0,3.0,75,0.00,,,0.00,0.000000,,2013-05-29 11:11:00,
2013-05-29 03:21:00,47.0,39.0,-100.00,SW,220,0.0,3.0,75,0.00,,,0.00,0.000000,,2013-05-29 11:21:00,
2013-05-29 03:52:00,44.0,39.0,-100.00,NNE,29,1.0,3.0,82,0.00,,,0.00,0.000000,,2013-05-29 11:52:00,
2013-05-29 04:01:00,44.0,39.0,-100.00,NNE,29,1.0,3.0,82,0.00,,,0.00,0.000000,,2013-05-29 12:01:00,
2013-05-29 04:11:00,44.0,39.0,-100.00,NNE,29,1.0,3.0,82,0.00,,,0.00,0.000000,,2013-05-29 12:11:00,
2013-05-29 04:21:00,44.0,39.0,-100.00,NNE,29,1.0,3.0,82,0.00,,,0.00,0.000000,,2013-05-29 12:21:00,
2013-05-29 04:52:00,42.0,38.0,-100.00,NE,49,0.0,3.0,86,0.00,,,0.00,0.000000,,2013-05-29 12:52:00,
2013-05-29 05:01:00,42.0,38.0,-100.00,NE,49,0.0,3.0,86,0.00,,,0.00,0.000000,,2013-05-29 13:01:00,
2013-05-29 05:11:00,42.0,38.0,-100.00,NE,49,0.0,3.0,86,0.00,,,0.00,0.000000,,2013-05-29 13:11:00,
2013-05-29 05:21:00,42.0,38.0,-100.00,NE,49,0.0,3.0,86,0.00,,,0.00,0.000000,,2013-05-29 13:21:00,
2013-05-29 05:53:00,41.0,38.0,-100.00,NE,43,1.0,2.0,90,0.00,,,0.00,6.000000,,2013-05-29 13:53:00,
2013-05-29 06:02:00,41.0,38.0,-100.00,NE,43,1.0,2.0,90,0.00,,,0.00,6.000000,,2013-05-29 14:02:00,
2013-05-29 06:11:00,41.0,38.0,-100.00,NE,43,1.0,2.0,90,0.00,,,0.00,6.000000,,2013-05-29 14:11:00,
2013-05-29 06:21:00,41.0,38.0,-100.00,NE,43,1.0,2.0,90,0.00,,,0.00,6.000000,,2013-05-29 14:21:00,
2013-05-29 06:52:00,42.0,38.0,-100.00,North,7,0.0,2.0,87,0.00,,,0.00,36.000000,,2013-05-29 14:52:00,
2013-05-29 07:01:00,42.0,38.0,-100.00,North,7,0.0,2.0,87,0.00,,,0.00,36.000000,,2013-05-29 15:01:00,
2013-05-29 07:11:00,42.0,38.0,-100.00,North,7,0.0,2.0,87,0.00,,,0.00,36.000000,,2013-05-29 15:11:00,
2013-05-29 07:21:00,42.0,38.0,-100.00,North,7,0.0,2.0,87,0.00,,,0.00,36.000000,,2013-05-29 15:21:00,
2013-05-29 07:53:00,49.0,40.0,-100.00,SSW,198,0.0,2.0,72,0.00,,,0.00,162.000000,,2013-05-29 15:53:00,
2013-05-29 08:03:00,49.0,40.0,-100.00,SSW,198,0.0,2.0,72,0.00,,,0.00,162.000000,,2013-05-29 16:03:00,
2013-05-29 08:12:00,49.0,40.0,-100.00,SSW,198,0.0,2.0,72,0.00,,,0.00,162.000000,,2013-05-29 16:12:00,
2013-05-29 08:22:00,49.0,40.0,-100.00,SSW,198,0.0,2.0,72,0.00,,,0.00,162.000000,,2013-05-29 16:22:00,
2013-05-29 08:52:00,57.0,42.0,-100.00,WSW,254,0.0,4.0,57,0.00,,,0.00,275.000000,,2013-05-29 16:52:00,
2013-05-29 09:02:00,57.0,42.0,-100.00,WSW,254,0.0,4.0,57,0.00,,,0.00,275.000000,,2013-05-29 17:02:00,
2013-05-29 09:12:00,57.0,42.0,-100.00,WSW,254,0.0,4.0,57,0.00,,,0.00,275.000000,,2013-05-29 17:12:00,
2013-05-29 09:22:00,57.0,42.0,-100.00,WSW,254,0.0,4.0,57,0.00,,,0.00,275.000000,,2013-05-29 17:22:00,
2013-05-29 09:52:00,64.0,41.0,-100.00,SW,221,1.0,3.0,43,0.00,,,0.00,415.000000,,2013-05-29 17:52:00,
2013-05-29 10:01:00,64.0,41.0,-100.00,SW,221,1.0,3.0,43,0.00,,,0.00,415.000000,,2013-05-29 18:01:00,
2013-05-29 10:13:00,64.0,41.0,-100.00,SW,221,1.0,3.0,43,0.00,,,0.00,415.000000,,2013-05-29 18:13:00,
2013-05-29 10:22:00,64.0,41.0,-100.00,SW,221,1.0,3.0,43,0.00,,,0.00,415.000000,,2013-05-29 18:22:00,
2013-05-29 10:52:00,69.0,42.0,-100.00,WSW,254,1.0,4.0,38,0.00,,,0.00,556.000000,,2013-05-29 18:52:00,
2013-05-29 12:52:00,77.0,42.0,-100.00,WNW,289,2.0,8.0,29,-99.99,,,0.00,745.000000,,2013-05-29 20:52:00,
2013-05-29 13:53:00,77.0,41.0,-100.00,West,271,4.0,10.0,28,-99.99,,,0.00,791.000000,,2013-05-29 21:53:00,
2013-05-29 14:03:00,77.0,41.0,-100.00,West,271,4.0,10.0,28,-99.99,,,0.00,791.000000,,2013-05-29 22:03:00,
2013-05-29 14:12:00,77.0,41.0,-100.00,West,271,4.0,10.0,28,-99.99,,,0.00,791.000000,,2013-05-29 22:12:00,
2013-05-29 14:23:00,77.0,41.0,-100.00,West,271,4.0,10.0,28,-99.99,,,0.00,791.000000,,2013-05-29 22:23:00,
2013-05-29 16:52:00,73.0,40.0,-100.00,West,269,5.0,13.0,30,-99.99,,,0.00,707.000000,,2013-05-30 00:52:00,
2013-05-29 17:01:00,73.0,40.0,-100.00,West,269,5.0,13.0,30,-99.99,,,0.00,707.000000,,2013-05-30 01:01:00,
2013-05-29 17:11:00,73.0,40.0,-100.00,West,269,5.0,13.0,30,-99.99,,,0.00,707.000000,,2013-05-30 01:11:00,
2013-05-29 17:21:00,73.0,40.0,-100.00,West,269,5.0,13.0,30,-99.99,,,0.00,707.000000,,2013-05-30 01:21:00,
2013-05-29 17:52:00,70.0,40.0,-100.00,WSW,243,5.0,13.0,34,0.00,,,0.00,611.000000,,2013-05-30 01:52:00,
2013-05-29 18:01:00,70.0,40.0,-100.00,WSW,243,5.0,13.0,34,0.00,,,0.00,611.000000,,2013-05-30 02:01:00,
2013-05-29 18:11:00,70.0,40.0,-100.00,WSW,243,5.0,13.0,34,0.00,,,0.00,611.000000,,2013-05-30 02:11:00,
2013-05-29 18:21:00,70.0,40.0,-100.00,WSW,243,5.0,13.0,34,0.00,,,0.00,611.000000,,2013-05-30 02:21:00,
2013-05-29 19:01:00,69.0,41.0,-100.00,West,261,3.0,12.0,36,0.00,,,0.00,495.000000,,2013-05-30 03:01:00,
2013-05-29 19:11:00,69.0,41.0,-100.00,West,261,3.0,12.0,36,0.00,,,0.00,495.000000,,2013-05-30 03:11:00,
2013-05-29 19:21:00,69.0,41.0,-100.00,West,261,3.0,12.0,36,0.00,,,0.00,495.000000,,2013-05-30 03:21:00,
2013-05-29 19:53:00,69.0,42.0,-100.00,WSW,244,2.0,10.0,38,0.00,,,0.00,369.000000,,2013-05-30 03:53:00,
2013-05-29 20:02:00,69.0,42.0,-100.00,WSW,244,2.0,10.0,38,0.00,,,0.00,369.000000,,2013-05-30 04:02:00,
2013-05-29 20:12:00,69.0,42.0,-100.00,WSW,244,2.0,10.0,38,0.00,,,0.00,369.000000,,2013-05-30 04:12:00,
2013-05-29 20:23:00,69.0,42.0,-100.00,WSW,244,2.0,10.0,38,0.00,,,0.00,369.000000,,2013-05-30 04:23:00,
2013-05-29 20:53:00,63.0,41.0,-100.00,WSW,246,5.0,11.0,44,-99.99,,,0.00,239.000000,,2013-05-30 04:53:00,
2013-05-29 21:02:00,63.0,41.0,-100.00,WSW,246,5.0,11.0,44,-99.99,,,0.00,239.000000,,2013-05-30 05:02:00,
2013-05-29 21:12:00,63.0,41.0,-100.00,WSW,246,5.0,11.0,44,-99.99,,,0.00,239.000000,,2013-05-30 05:12:00,
2013-05-29 21:21:00,63.0,41.0,-100.00,WSW,246,5.0,11.0,44,-99.99,,,0.00,239.000000,,2013-05-30 05:21:00,
2013-05-29 21:52:00,60.0,40.0,-100.00,SSW,204,6.0,10.0,48,0.00,,,0.00,53.000000,,2013-05-30 05:52:00,
2013-05-29 22:01:00,60.0,40.0,-100.00,SSW,204,6.0,10.0,48,0.00,,,0.00,53.000000,,2013-05-30 06:01:00,
2013-05-29 22:12:00,60.0,40.0,-100.00,SSW,204,6.0,10.0,48,0.00,,,0.00,53.000000,,2013-05-30 06:12:00,
2013-05-29 22:21:00,60.0,40.0,-100.00,SSW,204,6.0,10.0,48,0.00,,,0.00,53.000000,,2013-05-30 06:21:00,
2013-05-29 22:52:00,57.0,41.0,-100.00,SW,229,2.0,8.0,54,0.00,,,0.00,24.000000,,2013-05-30 06:52:00,
2013-05-29 23:01:00,57.0,41.0,-100.00,SW,229,2.0,8.0,54,0.00,,,0.00,24.000000,,2013-05-30 07:01:00,
2013-05-29 23:12:00,57.0,41.0,-100.00,SW,229,2.0,8.0,54,0.00,,,0.00,24.000000,,2013-05-30 07:12:00,
2013-05-29 23:21:00,57.0,41.0,-100.00,SW,229,2.0,8.0,54,0.00,,,0.00,24.000000,,2013-05-30 07:21:00,
2013-05-29 23:52:00,53.0,40.0,-100.00,WSW,242,2.0,6.0,61,0.00,,,0.00,9.000000,,2013-05-30 07:52:00,